createdAt,value
2022-07-27T00:01:03.873Z,77.48
2022-07-27T00:03:30.947Z,77.81
2022-07-27T00:06:03.378Z,77.82
2022-07-27T00:08:30.626Z,77.96
2022-07-27T00:10:57.648Z,77.94
2022-07-27T00:13:25.269Z,78.03
2022-07-27T00:15:52.583Z,77.97
2022-07-27T00:18:19.899Z,78.33
2022-07-27T00:20:47.078Z,78.52
2022-07-27T00:23:14.048Z,78.69
2022-07-27T00:25:41.239Z,78.98
2022-07-27T00:28:08.285Z,78.71
2022-07-27T00:30:35.459Z,78.98
2022-07-27T00:33:02.541Z,78.62
2022-07-27T00:35:29.875Z,78.44
2022-07-27T00:37:56.975Z,78.45
2022-07-27T00:40:25.779Z,78.43
2022-07-27T00:42:52.837Z,78.94
2022-07-27T00:45:25.295Z,78.85
2022-07-27T00:47:55.057Z,78.96
2022-07-27T00:50:22.676Z,78.88
2022-07-27T00:52:49.991Z,79.22
2022-07-27T00:55:17.250Z,79.10
2022-07-27T00:57:59.037Z,79.14
2022-07-27T01:00:30.187Z,79.57
2022-07-27T01:02:57.825Z,79.91
2022-07-27T01:05:36.020Z,79.31
2022-07-27T01:08:05.535Z,79.54
2022-07-27T01:10:33.037Z,79.67
2022-07-27T01:13:00.268Z,79.67
2022-07-27T01:15:27.456Z,79.46
2022-07-27T01:17:54.604Z,80.06
2022-07-27T01:20:21.670Z,79.97
2022-07-27T01:22:48.871Z,79.94
2022-07-27T01:25:15.971Z,80.96
2022-07-27T01:27:42.951Z,80.55
2022-07-27T01:30:30.582Z,80.56
2022-07-27T01:33:04.952Z,80.85
2022-07-27T01:35:33.190Z,80.82
2022-07-27T01:38:03.716Z,80.88
2022-07-27T01:40:31.133Z,81.07
2022-07-27T01:42:59.119Z,80.57
2022-07-27T01:45:26.581Z,80.85
2022-07-27T01:47:53.796Z,81.12
2022-07-27T01:50:20.899Z,81.63
2022-07-27T01:52:48.849Z,81.45
2022-07-27T01:55:15.895Z,81.14
2022-07-27T01:57:42.999Z,81.54
2022-07-27T02:00:12.593Z,81.92
2022-07-27T02:02:40.642Z,81.87
2022-07-27T02:05:12.215Z,81.76
2022-07-27T02:07:40.898Z,82.30
2022-07-27T02:10:09.411Z,82.06
2022-07-27T02:12:36.533Z,82.30
2022-07-27T02:15:15.199Z,82.42
2022-07-27T02:17:44.756Z,82.18
2022-07-27T02:20:14.589Z,82.07
2022-07-27T02:22:42.501Z,82.14
2022-07-27T02:25:11.512Z,83.13
2022-07-27T02:27:39.512Z,83.19
2022-07-27T02:30:07.597Z,82.73
2022-07-27T02:32:34.879Z,82.81
2022-07-27T02:35:03.164Z,82.50
2022-07-27T02:37:46.754Z,82.86
2022-07-27T02:40:15.882Z,82.68
2022-07-27T02:42:43.630Z,82.59
2022-07-27T02:45:10.531Z,82.84
2022-07-27T02:47:40.236Z,83.42
2022-07-27T02:50:11.297Z,83.17
2022-07-27T02:52:38.444Z,83.32
2022-07-27T02:55:06.736Z,83.55
2022-07-27T02:57:38.245Z,83.58
2022-07-27T03:00:08.440Z,84.02
2022-07-27T03:02:38.015Z,83.50
2022-07-27T03:05:07.334Z,83.78
2022-07-27T03:07:34.764Z,84.18
2022-07-27T03:10:01.941Z,83.85
2022-07-27T03:12:30.514Z,83.68
2022-07-27T03:14:57.815Z,84.47
2022-07-27T03:17:27.353Z,84.54
2022-07-27T03:19:54.421Z,84.28
2022-07-27T03:22:21.620Z,84.21
2022-07-27T03:24:48.693Z,84.92
2022-07-27T03:27:16.521Z,85.12
2022-07-27T03:29:43.650Z,85.27
2022-07-27T03:32:10.815Z,84.87
2022-07-27T03:34:37.960Z,84.75
2022-07-27T03:37:05.098Z,85.55
2022-07-27T03:39:32.345Z,85.42
2022-07-27T03:41:59.393Z,84.77
2022-07-27T03:44:26.373Z,85.20
2022-07-27T03:46:53.467Z,85.04
2022-07-27T03:49:20.620Z,85.34
2022-07-27T03:51:47.715Z,85.15
2022-07-27T03:54:14.740Z,86.12
2022-07-27T03:56:42.022Z,85.30
2022-07-27T03:59:09.450Z,84.99
2022-07-27T04:01:36.699Z,85.32
2022-07-27T04:04:04.112Z,85.86
2022-07-27T04:06:31.343Z,86.88
2022-07-27T04:09:08.823Z,86.65
2022-07-27T04:11:37.748Z,86.89
2022-07-27T04:14:13.100Z,87.87
2022-07-27T04:16:41.633Z,87.54
2022-07-27T04:19:09.228Z,86.90
2022-07-27T04:21:36.590Z,86.26
2022-07-27T04:24:04.041Z,85.39
2022-07-27T04:26:31.495Z,85.00
2022-07-27T04:28:58.707Z,84.39
2022-07-27T04:31:26.096Z,84.14
2022-07-27T04:33:53.081Z,81.67
2022-07-27T04:36:20.303Z,81.14
2022-07-27T04:38:47.695Z,78.97
2022-07-27T04:41:14.914Z,77.34
2022-07-27T04:43:43.839Z,76.69
2022-07-27T04:46:15.320Z,74.54
2022-07-27T04:48:48.815Z,72.24
2022-07-27T04:51:17.159Z,72.17
2022-07-27T04:53:53.529Z,71.85
2022-07-27T04:56:26.888Z,71.84
2022-07-27T04:58:54.708Z,69.23
2022-07-27T05:01:23.306Z,67.33
2022-07-27T05:03:50.637Z,66.00
2022-07-27T05:06:17.945Z,66.92
2022-07-27T05:08:45.017Z,66.83
2022-07-27T05:11:12.182Z,65.32
2022-07-27T05:13:42.531Z,64.52
2022-07-27T05:16:11.278Z,58.94
2022-07-27T05:18:39.162Z,62.26
2022-07-27T05:21:07.431Z,59.34
2022-07-27T05:23:34.679Z,55.88
2022-07-27T05:26:01.679Z,55.93
2022-07-27T05:28:30.044Z,55.12
2022-07-27T05:30:57.204Z,53.65
2022-07-27T05:33:24.377Z,51.77
2022-07-27T05:35:51.544Z,49.42
2022-07-27T05:38:18.483Z,47.92
2022-07-27T05:40:46.670Z,48.74
2022-07-27T05:43:14.070Z,48.06
2022-07-27T05:45:40.949Z,47.57
2022-07-27T05:48:08.080Z,47.88
2022-07-27T05:50:35.577Z,47.15
2022-07-27T05:53:02.666Z,45.14
2022-07-27T05:55:29.719Z,45.87
2022-07-27T05:57:56.567Z,45.00
2022-07-27T06:00:23.815Z,45.59
2022-07-27T06:02:50.785Z,45.09
2022-07-27T06:05:17.938Z,43.84
2022-07-27T06:08:00.821Z,44.63
2022-07-27T06:10:33.916Z,43.73
2022-07-27T06:13:03.649Z,43.38
2022-07-27T06:15:30.834Z,42.87
2022-07-27T06:17:58.047Z,41.87
2022-07-27T06:20:25.296Z,43.27
2022-07-27T06:22:55.620Z,41.90
2022-07-27T06:25:34.006Z,41.46
2022-07-27T06:28:06.034Z,41.18
2022-07-27T06:30:33.689Z,39.98
2022-07-27T06:33:01.455Z,41.11
2022-07-27T06:35:28.591Z,40.31
2022-07-27T06:37:55.625Z,40.42
2022-07-27T06:40:25.358Z,39.03
2022-07-27T06:42:55.693Z,38.55
2022-07-27T06:45:22.747Z,38.02
2022-07-27T06:47:51.650Z,37.51
2022-07-27T06:50:20.945Z,37.20
2022-07-27T06:52:49.024Z,36.81
2022-07-27T06:55:16.012Z,36.23
2022-07-27T06:57:43.376Z,35.35
2022-07-27T07:00:12.024Z,34.91
2022-07-27T07:02:50.704Z,35.08
2022-07-27T07:05:17.784Z,36.53
2022-07-27T07:07:45.193Z,34.77
2022-07-27T07:10:12.221Z,35.35
2022-07-27T07:12:39.194Z,34.85
2022-07-27T07:15:08.184Z,33.80
2022-07-27T07:17:35.205Z,34.34
2022-07-27T07:20:02.330Z,34.56
2022-07-27T07:22:29.441Z,34.21
2022-07-27T07:25:02.243Z,33.49
2022-07-27T07:27:29.942Z,33.38
2022-07-27T07:29:57.302Z,32.10
2022-07-27T07:32:28.926Z,32.81
2022-07-27T07:35:00.208Z,32.78
2022-07-27T07:37:33.554Z,32.85
2022-07-27T07:40:13.102Z,33.44
2022-07-27T07:43:09.086Z,31.65
2022-07-27T07:45:50.782Z,31.10
2022-07-27T07:48:23.123Z,32.87
2022-07-27T07:50:52.191Z,30.84
2022-07-27T07:53:23.136Z,30.85
2022-07-27T07:55:51.141Z,31.86
2022-07-27T07:58:18.945Z,31.15
2022-07-27T08:00:46.160Z,31.27
2022-07-27T08:03:13.496Z,31.28
2022-07-27T08:05:40.641Z,30.78
2022-07-27T08:08:08.049Z,30.67
2022-07-27T08:10:35.358Z,30.08
2022-07-27T08:13:02.442Z,29.53
2022-07-27T08:15:35.083Z,29.76
2022-07-27T08:18:05.083Z,30.03
2022-07-27T08:20:32.321Z,29.95
2022-07-27T08:22:59.634Z,29.42
2022-07-27T08:25:26.641Z,30.43
2022-07-27T08:27:55.346Z,29.86
2022-07-27T08:30:24.368Z,29.57
2022-07-27T08:32:53.927Z,28.72
2022-07-27T08:35:22.111Z,28.60
2022-07-27T08:37:49.753Z,29.05
2022-07-27T08:43:06.066Z,28.34
2022-07-27T08:45:34.107Z,27.70
2022-07-27T08:48:01.846Z,27.43
2022-07-27T08:50:30.842Z,28.54
2022-07-27T08:53:13.577Z,27.71
2022-07-27T08:55:43.679Z,27.39
2022-07-27T08:58:14.844Z,26.97
2022-07-27T09:00:45.244Z,26.64
2022-07-27T09:03:19.074Z,26.45
2022-07-27T09:05:51.487Z,25.89
2022-07-27T09:08:22.483Z,25.38
2022-07-27T09:10:49.671Z,25.19
2022-07-27T09:13:34.587Z,25.47
2022-07-27T09:16:20.776Z,25.94
2022-07-27T09:18:49.718Z,25.14
2022-07-27T09:21:24.505Z,25.48
2022-07-27T09:23:54.319Z,25.16
2022-07-27T09:26:33.179Z,24.40
2022-07-27T09:29:05.948Z,24.61
2022-07-27T09:31:41.997Z,24.97
2022-07-27T09:34:10.088Z,25.47
2022-07-27T09:36:53.507Z,26.05
2022-07-27T09:39:23.088Z,24.88
2022-07-27T09:41:58.920Z,25.93
2022-07-27T09:44:42.250Z,24.85
2022-07-27T09:47:30.301Z,24.90
2022-07-27T09:50:18.137Z,25.10
2022-07-27T09:52:45.431Z,25.38
2022-07-27T09:55:13.062Z,24.75
2022-07-27T09:57:56.451Z,25.42
2022-07-27T10:00:24.662Z,24.96
2022-07-27T10:02:53.290Z,24.75
2022-07-27T10:05:24.468Z,24.37
2022-07-27T10:07:54.696Z,23.82
2022-07-27T10:10:23.560Z,24.01
2022-07-27T10:12:55.094Z,23.12
2022-07-27T10:15:23.998Z,22.75
2022-07-27T10:18:01.585Z,23.62
2022-07-27T10:20:30.055Z,23.09
2022-07-27T10:22:59.080Z,22.67
2022-07-27T10:25:32.443Z,23.10
2022-07-27T10:28:16.718Z,23.47
2022-07-27T10:30:45.607Z,23.24
2022-07-27T10:33:38.063Z,22.63
2022-07-27T10:36:05.641Z,24.17
2022-07-27T10:38:47.493Z,23.55
2022-07-27T10:41:29.010Z,22.28
2022-07-27T10:44:17.466Z,22.96
2022-07-27T10:47:02.731Z,22.82
2022-07-27T10:49:33.150Z,23.42
2022-07-27T10:52:07.758Z,22.42
2022-07-27T10:54:39.989Z,23.08
2022-07-27T10:57:09.404Z,23.08
2022-07-27T11:00:07.375Z,22.02
2022-07-27T11:02:41.861Z,22.30
2022-07-27T11:05:32.890Z,23.08
2022-07-27T11:10:49.144Z,25.19
2022-07-27T11:13:30.380Z,25.25
2022-07-27T11:16:26.205Z,25.06
2022-07-27T11:19:03.842Z,24.11
2022-07-27T11:21:34.395Z,24.75
2022-07-27T11:24:06.485Z,24.24
2022-07-27T11:26:39.816Z,23.97
2022-07-27T11:29:12.347Z,24.98
2022-07-27T11:31:58.355Z,24.94
2022-07-27T11:34:36.967Z,25.64
2022-07-27T11:37:12.727Z,26.26
2022-07-27T11:42:41.938Z,25.19
2022-07-27T11:45:09.195Z,24.76
2022-07-27T11:47:37.322Z,25.26
2022-07-27T11:50:07.484Z,25.25
2022-07-27T11:52:35.277Z,24.42
2022-07-27T11:55:02.993Z,24.50
2022-07-27T11:57:34.326Z,23.60
2022-07-27T12:00:02.381Z,23.11
2022-07-27T12:02:29.823Z,22.56
2022-07-27T12:05:02.615Z,22.44
2022-07-27T12:07:33.433Z,21.89
2022-07-27T12:10:03.762Z,21.88
2022-07-27T12:12:33.746Z,22.53
2022-07-27T12:15:11.700Z,22.33
2022-07-27T12:17:57.554Z,22.65
2022-07-27T12:20:33.762Z,22.58
2022-07-27T12:23:07.059Z,22.24
2022-07-27T12:25:35.764Z,22.64
2022-07-27T12:28:06.982Z,22.04
2022-07-27T12:30:50.616Z,23.56
2022-07-27T12:33:36.149Z,21.96
2022-07-27T12:36:09.377Z,21.84
2022-07-27T12:38:45.613Z,22.96
2022-07-27T12:41:33.017Z,22.45
2022-07-27T12:44:10.289Z,22.29
2022-07-27T12:46:59.774Z,22.58
2022-07-27T12:49:34.890Z,22.41
2022-07-27T12:52:13.274Z,23.19
2022-07-27T12:54:40.380Z,22.62
2022-07-27T12:57:10.158Z,23.11
2022-07-27T12:59:37.229Z,22.68
2022-07-27T13:02:04.474Z,23.67
2022-07-27T13:04:31.611Z,23.22
2022-07-27T13:06:58.843Z,23.48
2022-07-27T13:09:25.837Z,23.86
2022-07-27T13:12:13.419Z,23.75
2022-07-27T13:14:40.770Z,23.16
2022-07-27T13:17:10.357Z,23.45
2022-07-27T13:19:37.653Z,25.19
2022-07-27T13:22:04.912Z,24.34
2022-07-27T13:24:32.201Z,24.73
2022-07-27T13:26:59.473Z,24.84
2022-07-27T13:29:27.715Z,24.50
2022-07-27T13:31:57.345Z,23.09
2022-07-27T13:34:24.874Z,22.58
2022-07-27T13:36:52.081Z,22.57
2022-07-27T13:39:19.592Z,23.51
2022-07-27T13:41:55.061Z,23.09
2022-07-27T13:44:49.126Z,22.91
2022-07-27T13:47:10.890Z,22.73
2022-07-27T13:49:37.878Z,23.63
2022-07-27T13:52:05.335Z,22.61
2022-07-27T13:54:32.894Z,22.91
2022-07-27T13:57:00.005Z,22.24
2022-07-27T13:59:27.178Z,22.88
2022-07-27T14:01:54.834Z,22.84
2022-07-27T14:04:23.600Z,21.61
2022-07-27T14:06:53.154Z,22.64
2022-07-27T14:09:22.252Z,23.19
2022-07-27T14:11:51.101Z,23.32
2022-07-27T14:14:21.779Z,23.05
2022-07-27T14:16:54.340Z,23.10
2022-07-27T14:19:21.533Z,23.06
2022-07-27T14:21:48.833Z,23.26
2022-07-27T14:24:15.991Z,23.81
2022-07-27T14:26:43.786Z,23.08
2022-07-27T14:29:11.415Z,22.34
2022-07-27T14:31:38.680Z,23.02
2022-07-27T14:34:05.795Z,22.74
2022-07-27T14:36:32.889Z,23.54
2022-07-27T14:38:59.984Z,23.93
2022-07-27T14:41:27.234Z,22.27
2022-07-27T14:43:54.214Z,23.24
2022-07-27T14:46:21.294Z,23.43
2022-07-27T14:49:05.870Z,22.82
2022-07-27T14:51:33.546Z,23.08
2022-07-27T14:54:00.756Z,23.22
2022-07-27T14:56:28.128Z,22.46
2022-07-27T14:58:55.416Z,23.19
2022-07-27T15:01:22.727Z,24.04
2022-07-27T15:03:50.518Z,23.75
2022-07-27T15:06:17.605Z,24.62
2022-07-27T15:08:44.690Z,24.22
2022-07-27T15:11:11.947Z,23.42
2022-07-27T15:13:39.210Z,23.83
2022-07-27T15:16:06.696Z,24.17
2022-07-27T15:18:38.312Z,23.14
2022-07-27T15:21:13.094Z,23.18
2022-07-27T15:23:43.395Z,26.93
2022-07-27T15:26:11.250Z,24.89
2022-07-27T15:28:38.462Z,25.57
2022-07-27T15:31:05.930Z,24.74
2022-07-27T15:33:33.082Z,24.74
2022-07-27T15:36:03.409Z,24.24
2022-07-27T15:38:30.565Z,24.67
2022-07-27T15:40:57.538Z,24.58
2022-07-27T15:43:24.723Z,25.12
2022-07-27T15:45:52.221Z,24.42
2022-07-27T15:48:20.468Z,24.59
2022-07-27T15:50:51.095Z,25.61
2022-07-27T15:53:20.921Z,25.34
2022-07-27T15:55:49.884Z,26.24
2022-07-27T15:58:20.197Z,26.23
2022-07-27T16:00:49.718Z,25.74
2022-07-27T16:03:17.448Z,27.45
2022-07-27T16:05:47.875Z,26.95
2022-07-27T16:08:16.670Z,28.58
2022-07-27T16:10:46.090Z,28.70
2022-07-27T16:13:13.927Z,29.22
2022-07-27T16:16:01.067Z,31.57
2022-07-27T16:18:28.845Z,32.83
2022-07-27T16:20:56.740Z,34.52
2022-07-27T16:23:24.277Z,34.89
2022-07-27T16:26:04.426Z,35.10
2022-07-27T16:28:33.996Z,35.97
2022-07-27T16:31:01.177Z,35.31
2022-07-27T16:33:28.396Z,34.03
2022-07-27T16:35:55.373Z,35.21
2022-07-27T16:38:22.138Z,36.15
2022-07-27T16:40:52.050Z,37.39
2022-07-27T16:43:19.221Z,38.17
2022-07-27T16:45:46.308Z,38.99
2022-07-27T16:48:13.329Z,39.60
2022-07-27T16:50:43.789Z,40.42
2022-07-27T16:53:11.099Z,40.89
2022-07-27T16:55:38.359Z,41.31
2022-07-27T16:58:05.588Z,41.93
2022-07-27T17:00:38.146Z,42.75
2022-07-27T17:03:06.552Z,44.26
2022-07-27T17:05:34.165Z,44.33
2022-07-27T17:08:01.499Z,45.17
2022-07-27T17:10:28.867Z,45.65
2022-07-27T17:12:58.286Z,45.37
2022-07-27T17:15:26.051Z,45.88
2022-07-27T17:17:53.450Z,46.28
2022-07-27T17:20:35.479Z,46.02
2022-07-27T17:23:03.999Z,46.52
2022-07-27T17:25:31.527Z,46.59
2022-07-27T17:27:58.701Z,46.72
2022-07-27T17:30:25.582Z,47.66
2022-07-27T17:32:56.007Z,48.33
2022-07-27T17:35:41.403Z,48.42
2022-07-27T17:38:14.466Z,49.02
2022-07-27T17:40:43.367Z,49.42
2022-07-27T17:43:18.031Z,49.63
2022-07-27T17:45:45.208Z,49.25
2022-07-27T17:48:12.665Z,50.07
2022-07-27T17:50:39.737Z,50.13
2022-07-27T17:53:06.974Z,50.62
2022-07-27T17:55:36.322Z,51.13
2022-07-27T17:58:03.853Z,52.00
2022-07-27T18:00:31.057Z,51.53
2022-07-27T18:02:58.451Z,51.22
2022-07-27T18:05:25.782Z,51.73
2022-07-27T18:07:54.039Z,53.26
2022-07-27T18:10:21.838Z,53.63
2022-07-27T18:12:48.918Z,54.35
2022-07-27T18:15:35.645Z,54.80
2022-07-27T18:18:33.481Z,54.55
2022-07-27T18:21:15.448Z,55.76
2022-07-27T18:23:47.230Z,56.33
2022-07-27T18:26:14.555Z,55.23
2022-07-27T18:28:41.852Z,55.41
2022-07-27T18:31:10.641Z,55.50
2022-07-27T18:33:40.838Z,55.91
2022-07-27T18:36:08.237Z,56.18
2022-07-27T18:38:35.271Z,56.91
2022-07-27T18:41:03.721Z,59.00
2022-07-27T18:43:31.333Z,59.89
2022-07-27T18:45:59.241Z,59.27
2022-07-27T18:48:26.438Z,61.72
2022-07-27T18:50:54.129Z,60.78
2022-07-27T18:53:21.438Z,60.05
2022-07-27T18:55:54.066Z,59.19
2022-07-27T18:58:23.386Z,58.69
2022-07-27T19:00:50.897Z,57.90
2022-07-27T19:03:19.864Z,58.44
2022-07-27T19:05:49.637Z,58.38
2022-07-27T19:08:20.554Z,58.27
2022-07-27T19:10:48.041Z,58.61
2022-07-27T19:13:15.152Z,58.64
2022-07-27T19:15:42.514Z,58.74
2022-07-27T19:18:09.708Z,58.97
2022-07-27T19:20:38.045Z,58.69
2022-07-27T19:23:08.316Z,58.93
2022-07-27T19:25:35.462Z,59.89
2022-07-27T19:28:04.016Z,59.46
2022-07-27T19:30:31.406Z,60.38
2022-07-27T19:32:58.452Z,59.71
2022-07-27T19:35:25.787Z,59.70
2022-07-27T19:37:53.204Z,60.00
2022-07-27T19:40:43.637Z,62.83
2022-07-27T19:43:08.364Z,62.13
2022-07-27T19:45:36.920Z,61.20
2022-07-27T19:48:05.952Z,61.24
2022-07-27T19:50:33.247Z,59.40
2022-07-27T19:53:04.081Z,59.07
2022-07-27T19:55:31.883Z,59.83
2022-07-27T19:57:59.100Z,60.58
2022-07-27T20:00:26.417Z,60.97
2022-07-27T20:02:53.679Z,61.41
2022-07-27T20:05:20.820Z,60.04
2022-07-27T20:07:48.474Z,58.29
2022-07-27T20:10:15.840Z,59.21
2022-07-27T20:12:43.480Z,59.52
2022-07-27T20:15:13.678Z,59.82
2022-07-27T20:17:41.138Z,59.75
2022-07-27T20:20:09.878Z,59.77
2022-07-27T20:22:39.464Z,60.32
2022-07-27T20:25:10.764Z,60.44
2022-07-27T20:27:38.980Z,60.33
2022-07-27T20:30:07.216Z,60.72
2022-07-27T20:32:34.291Z,59.93
2022-07-27T20:35:01.668Z,60.04
2022-07-27T20:37:28.850Z,60.75
2022-07-27T20:39:55.918Z,60.73
2022-07-27T20:42:23.130Z,61.21
2022-07-27T20:44:50.640Z,61.35
2022-07-27T20:47:17.725Z,61.42
2022-07-27T20:49:45.672Z,61.44
2022-07-27T20:52:15.659Z,62.06
2022-07-27T20:54:42.942Z,62.38
2022-07-27T20:57:10.139Z,62.15
2022-07-27T20:59:37.341Z,62.59
2022-07-27T21:02:04.708Z,62.33
2022-07-27T21:04:31.555Z,62.39
2022-07-27T21:06:58.811Z,62.35
2022-07-27T21:09:25.958Z,62.60
2022-07-27T21:11:57.631Z,62.24
2022-07-27T21:14:25.112Z,62.94
2022-07-27T21:16:52.426Z,62.82
2022-07-27T21:19:21.188Z,63.00
2022-07-27T21:21:48.599Z,62.79
2022-07-27T21:24:17.009Z,62.82
2022-07-27T21:26:48.662Z,63.76
2022-07-27T21:29:16.218Z,64.54
2022-07-27T21:31:48.193Z,63.86
2022-07-27T21:34:20.740Z,64.55
2022-07-27T21:36:48.927Z,64.68
2022-07-27T21:39:16.217Z,64.96
2022-07-27T21:41:43.282Z,65.36
2022-07-27T21:44:10.902Z,65.35
2022-07-27T21:46:38.495Z,66.01
2022-07-27T21:49:05.729Z,66.02
2022-07-27T21:51:33.037Z,65.80
2022-07-27T21:54:00.545Z,65.87
2022-07-27T21:56:28.388Z,67.10
2022-07-27T21:58:55.494Z,67.31
2022-07-27T22:01:22.660Z,67.21
2022-07-27T22:03:53.152Z,68.33
2022-07-27T22:06:20.611Z,67.58
2022-07-27T22:08:47.615Z,67.87
2022-07-27T22:11:14.889Z,67.79
2022-07-27T22:13:41.967Z,68.25
2022-07-27T22:16:09.628Z,67.85
2022-07-27T22:18:36.626Z,68.17
2022-07-27T22:21:03.967Z,68.73
2022-07-27T22:23:31.303Z,68.62
2022-07-27T22:25:58.582Z,68.47
2022-07-27T22:28:28.417Z,68.80
2022-07-27T22:30:59.881Z,68.92
2022-07-27T22:33:44.555Z,69.24
2022-07-27T22:36:12.485Z,69.00
2022-07-27T22:38:39.811Z,70.18
2022-07-27T22:41:07.250Z,69.54
2022-07-27T22:43:34.632Z,69.59
2022-07-27T22:46:06.326Z,69.82
2022-07-27T22:48:33.698Z,70.12
2022-07-27T22:51:00.855Z,70.63
2022-07-27T22:53:28.072Z,70.71
2022-07-27T22:55:55.350Z,71.65
2022-07-27T22:58:22.564Z,70.49
2022-07-27T23:00:49.674Z,70.75
2022-07-27T23:03:17.214Z,70.09
2022-07-27T23:05:44.160Z,71.93
2022-07-27T23:08:11.241Z,70.66
2022-07-27T23:10:48.101Z,71.85
2022-07-27T23:13:17.643Z,71.50
2022-07-27T23:15:46.388Z,71.68
2022-07-27T23:18:14.358Z,71.56
2022-07-27T23:20:42.152Z,71.66
2022-07-27T23:23:15.741Z,71.75
2022-07-27T23:25:48.146Z,71.78
2022-07-27T23:28:16.424Z,72.38
2022-07-27T23:30:43.999Z,72.18
2022-07-27T23:33:10.856Z,72.97
2022-07-27T23:35:37.958Z,73.28
2022-07-27T23:38:07.335Z,73.24
2022-07-27T23:40:34.468Z,74.00
2022-07-27T23:43:02.274Z,74.18
2022-07-27T23:45:29.361Z,74.59
2022-07-27T23:47:56.540Z,74.28
2022-07-27T23:50:23.743Z,74.09
2022-07-27T23:52:51.086Z,74.66
2022-07-27T23:55:18.092Z,74.76
2022-07-27T23:57:45.142Z,74.70
